createdAt,value
2019-04-01T00:01:47.094Z,94743.42
2019-04-01T00:04:15.773Z,94751.93
2019-04-01T00:06:44.410Z,94744.91
2019-04-01T00:09:12.900Z,94744.86
2019-04-01T00:11:41.581Z,94747.03
2019-04-01T00:14:10.220Z,94746.53
2019-04-01T00:16:38.717Z,94740.44
2019-04-01T00:19:07.541Z,94747.08
2019-04-01T00:21:36.176Z,94746.23
2019-04-01T00:24:04.752Z,94750.23
2019-04-01T00:26:33.299Z,94741.18
2019-04-01T00:29:01.936Z,94740.94
2019-04-01T00:31:30.573Z,94744.16
2019-04-01T00:33:59.290Z,94741.91
2019-04-01T00:36:27.800Z,94744.45
2019-04-01T00:38:56.432Z,94745.42
2019-04-01T00:41:25.127Z,94743.46
2019-04-01T00:43:54.772Z,94751.89
2019-04-01T00:46:23.679Z,94747.91
2019-04-01T00:48:52.375Z,94749.70
2019-04-01T00:51:21.016Z,94740.67
2019-04-01T00:53:49.549Z,94745.74
2019-04-01T00:56:18.279Z,94748.73
2019-04-01T00:58:46.785Z,94743.92
2019-04-01T01:01:15.421Z,94749.25
2019-04-01T01:03:44.055Z,94750.84
2019-04-01T01:06:12.691Z,94747.25
2019-04-01T01:08:41.231Z,94751.55
2019-04-01T01:11:09.760Z,94757.08
2019-04-01T01:13:38.399Z,94755.83
2019-04-01T01:16:07.066Z,94754.35
2019-04-01T01:18:35.570Z,94754.85
2019-04-01T01:21:04.210Z,94753.37
2019-04-01T01:23:32.884Z,94751.58
2019-04-01T01:26:01.528Z,94754.90
2019-04-01T01:28:30.011Z,94751.86
2019-04-01T01:30:58.612Z,94758.91
2019-04-01T01:33:27.246Z,94756.75
2019-04-01T01:35:55.749Z,94756.41
2019-04-01T01:38:24.421Z,94761.15
2019-04-01T01:40:53.071Z,94765.16
2019-04-01T01:43:21.570Z,94766.21
2019-04-01T01:45:50.353Z,94760.77
2019-04-01T01:48:18.993Z,94759.06
2019-04-01T01:50:48.606Z,94761.64
2019-04-01T01:53:17.258Z,94758.92
2019-04-01T01:55:45.744Z,94754.00
2019-04-01T01:58:14.378Z,94767.48
2019-04-01T02:00:43.052Z,94758.11
2019-04-01T02:03:11.635Z,94760.50
2019-04-01T02:05:40.203Z,94755.27
2019-04-01T02:08:09.127Z,94757.41
2019-04-01T02:10:37.762Z,94750.06
2019-04-01T02:13:06.371Z,94751.38
2019-04-01T02:15:34.988Z,94751.31
2019-04-01T02:18:03.655Z,94759.22
2019-04-01T02:20:32.357Z,94751.34
2019-04-01T02:23:00.859Z,94756.86
2019-04-01T02:25:29.376Z,94759.37
2019-04-01T02:27:58.258Z,94758.81
2019-04-01T02:30:26.909Z,94758.42
2019-04-01T02:32:55.401Z,94764.95
2019-04-01T02:35:24.202Z,94765.48
2019-04-01T02:37:52.836Z,94761.89
2019-04-01T02:40:22.087Z,94772.00
2019-04-01T02:42:51.442Z,94760.53
2019-04-01T02:45:19.913Z,94764.27
2019-04-01T02:47:48.546Z,94770.19
2019-04-01T02:50:17.410Z,94763.49
2019-04-01T02:52:45.990Z,94766.52
2019-04-01T02:55:14.615Z,94768.58
2019-04-01T02:57:43.228Z,94762.30
2019-04-01T03:00:12.150Z,94764.91
2019-04-01T03:02:40.795Z,94763.16
2019-04-01T03:05:09.567Z,94762.98
2019-04-01T03:07:38.225Z,94771.61
2019-04-01T03:10:06.861Z,94772.23
2019-04-01T03:12:35.532Z,94778.51
2019-04-01T03:15:05.765Z,94776.09
2019-04-01T03:17:34.327Z,94780.06
2019-04-01T03:20:03.060Z,94781.88
2019-04-01T03:22:31.700Z,94781.03
2019-04-01T03:25:00.534Z,94775.67
2019-04-01T03:27:29.334Z,94772.92
2019-04-01T03:29:57.897Z,94776.44
2019-04-01T03:32:26.755Z,94774.83
2019-04-01T03:34:55.442Z,94789.58
2019-04-01T03:37:24.148Z,94776.77
2019-04-01T03:39:52.804Z,94787.20
2019-04-01T03:42:21.398Z,94790.37
2019-04-01T03:44:54.675Z,94790.70
2019-04-01T03:47:20.259Z,94798.61
2019-04-01T03:49:48.929Z,94791.38
2019-04-01T03:52:17.426Z,94806.17
2019-04-01T03:54:46.018Z,94806.41
2019-04-01T03:57:14.894Z,94803.95
2019-04-01T03:59:43.520Z,94799.59
2019-04-01T04:02:12.012Z,94802.57
2019-04-01T04:04:40.541Z,94803.39
2019-04-01T04:07:09.199Z,94805.50
2019-04-01T04:09:37.829Z,94799.39
2019-04-01T04:12:12.940Z,94804.84
2019-04-01T04:14:51.077Z,94807.09
2019-04-01T04:17:17.629Z,94812.11
2019-04-01T04:19:46.334Z,94820.00
2019-04-01T04:22:14.968Z,94816.77
2019-04-01T04:24:43.674Z,94820.14
2019-04-01T04:27:12.276Z,94817.52
2019-04-01T04:29:40.811Z,94824.95
2019-04-01T04:32:09.415Z,94827.70
2019-04-01T04:34:38.084Z,94819.53
2019-04-01T04:37:06.652Z,94826.06
2019-04-01T04:39:35.300Z,94830.73
2019-04-01T04:42:03.997Z,94824.33
2019-04-01T04:44:32.642Z,94828.09
2019-04-01T04:47:01.209Z,94832.98
2019-04-01T04:49:29.744Z,94834.78
2019-04-01T04:51:58.413Z,94836.19
2019-04-01T04:54:26.892Z,94833.09
2019-04-01T04:56:55.564Z,94832.38
2019-04-01T04:59:24.206Z,94827.34
2019-04-01T05:01:52.710Z,94835.04
2019-04-01T05:04:21.403Z,94833.91
2019-04-01T05:06:50.043Z,94832.20
2019-04-01T05:09:18.675Z,94840.14
2019-04-01T05:11:47.214Z,94847.52
2019-04-01T05:14:15.719Z,94840.74
2019-04-01T05:16:44.521Z,94846.88
2019-04-01T05:19:13.223Z,94851.19
2019-04-01T05:21:42.649Z,94843.86
2019-04-01T05:24:12.096Z,94851.30
2019-04-01T05:26:44.064Z,94851.31
2019-04-01T05:29:15.271Z,94840.40
2019-04-01T05:31:46.822Z,94849.89
2019-04-01T05:34:17.579Z,94847.23
2019-04-01T05:36:47.231Z,94852.73
2019-04-01T05:39:16.147Z,94845.81
2019-04-01T05:41:45.392Z,94849.08
2019-04-01T05:44:14.286Z,94849.77
2019-04-01T05:46:42.930Z,94850.93
2019-04-01T05:49:11.856Z,94846.34
2019-04-01T05:51:40.495Z,94847.80
2019-04-01T05:54:09.137Z,94845.84
2019-04-01T05:56:37.780Z,94846.34
2019-04-01T05:59:06.353Z,94850.36
2019-04-01T06:01:39.571Z,94849.02
2019-04-01T06:04:08.319Z,94847.75
2019-04-01T06:06:37.558Z,94853.27
2019-04-01T06:09:08.141Z,94846.56
2019-04-01T06:11:37.592Z,94842.62
2019-04-01T06:14:06.322Z,94849.56
2019-04-01T06:16:35.381Z,94852.39
2019-04-01T06:19:05.947Z,94849.64
2019-04-01T06:21:35.287Z,94849.13
2019-04-01T06:24:04.506Z,94847.81
2019-04-01T06:26:33.177Z,94851.38
2019-04-01T06:29:01.844Z,94854.04
2019-04-01T06:31:30.471Z,94843.28
2019-04-01T06:33:59.211Z,94836.71
2019-04-01T06:36:27.855Z,94842.96
2019-04-01T06:38:56.499Z,94846.10
2019-04-01T06:41:25.069Z,94840.81
2019-04-01T06:43:53.886Z,94846.30
2019-04-01T06:46:22.519Z,94845.17
2019-04-01T06:48:51.162Z,94851.84
2019-04-01T06:51:19.941Z,94852.25
2019-04-01T06:53:48.677Z,94843.78
2019-04-01T06:56:17.252Z,94847.03
2019-04-01T06:58:46.045Z,94842.47
2019-04-01T07:01:14.888Z,94854.45
2019-04-01T07:03:43.521Z,94851.09
2019-04-01T07:06:12.171Z,94851.27
2019-04-01T07:08:40.917Z,94849.05
2019-04-01T07:11:09.766Z,94852.22
2019-04-01T07:13:40.142Z,94854.42
2019-04-01T07:16:15.282Z,94852.98
2019-04-01T07:18:39.117Z,94853.55
2019-04-01T07:21:07.821Z,94852.51
2019-04-01T07:23:36.470Z,94851.82
2019-04-01T07:26:05.101Z,94853.69
2019-04-01T07:28:33.825Z,94855.95
2019-04-01T07:31:02.579Z,94853.11
2019-04-01T07:33:31.225Z,94850.05
2019-04-01T07:36:00.004Z,94855.02
2019-04-01T07:38:28.572Z,94854.26
2019-04-01T07:40:59.185Z,94853.83
2019-04-01T07:43:27.875Z,94855.21
2019-04-01T07:45:59.885Z,94849.41
2019-04-01T07:48:26.826Z,94854.91
2019-04-01T07:50:55.673Z,94859.97
2019-04-01T07:53:24.312Z,94858.89
2019-04-01T07:55:53.250Z,94856.26
2019-04-01T07:58:22.035Z,94858.76
2019-04-01T08:00:50.677Z,94858.19
2019-04-01T08:03:19.316Z,94851.13
2019-04-01T08:05:48.192Z,94855.19
2019-04-01T08:08:17.232Z,94857.66
2019-04-01T08:10:45.876Z,94855.83
2019-04-01T08:13:14.573Z,94849.95
2019-04-01T08:15:43.203Z,94848.84
2019-04-01T08:18:11.842Z,94849.85
2019-04-01T08:20:40.514Z,94848.08
2019-04-01T08:23:09.168Z,94851.70
2019-04-01T08:25:37.812Z,94844.77
2019-04-01T08:28:06.570Z,94847.86
2019-04-01T08:30:35.223Z,94844.41
2019-04-01T08:33:04.100Z,94847.92
2019-04-01T08:35:32.778Z,94839.09
2019-04-01T08:38:01.422Z,94839.39
2019-04-01T08:40:29.995Z,94839.23
2019-04-01T08:42:58.671Z,94840.67
2019-04-01T08:45:27.317Z,94839.88
2019-04-01T08:47:56.064Z,94835.05
2019-04-01T08:50:24.847Z,94831.88
2019-04-01T08:52:53.604Z,94827.09
2019-04-01T08:55:22.172Z,94831.36
2019-04-01T08:57:50.828Z,94816.06
2019-04-01T09:00:19.783Z,94818.87
2019-04-01T09:02:48.527Z,94822.66
2019-04-01T09:05:17.197Z,94814.97
2019-04-01T09:07:45.766Z,94817.23
2019-04-01T09:10:14.613Z,94806.52
2019-04-01T09:12:44.146Z,94799.62
2019-04-01T09:15:13.402Z,94816.47
2019-04-01T09:17:42.067Z,94799.78
2019-04-01T09:20:11.543Z,94808.04
2019-04-01T09:22:40.195Z,94806.19
2019-04-01T09:25:08.833Z,94812.30
2019-04-01T09:27:37.440Z,94804.22
2019-04-01T09:30:08.192Z,94797.22
2019-04-01T09:32:36.835Z,94794.66
2019-04-01T09:35:06.968Z,94801.72
2019-04-01T09:37:35.608Z,94786.32
2019-04-01T09:40:07.153Z,94791.03
2019-04-01T09:42:35.721Z,94788.77
2019-04-01T09:45:06.756Z,94781.09
2019-04-01T09:47:35.450Z,94774.95
2019-04-01T09:50:05.099Z,94778.95
2019-04-01T09:52:33.608Z,94780.09
2019-04-01T09:55:05.890Z,94771.52
2019-04-01T09:57:32.662Z,94765.31
2019-04-01T10:00:01.162Z,94757.57
2019-04-01T10:02:32.055Z,94750.61
2019-04-01T10:05:00.414Z,94744.72
2019-04-01T10:07:29.157Z,94756.14
2019-04-01T10:09:57.882Z,94749.03
2019-04-01T10:12:26.559Z,94744.34
2019-04-01T10:14:55.053Z,94745.30
2019-04-01T10:17:23.576Z,94749.59
2019-04-01T10:19:52.212Z,94744.38
2019-04-01T10:22:20.849Z,94745.55
2019-04-01T10:24:49.467Z,94741.86
2019-04-01T10:27:18.041Z,94739.75
2019-04-01T10:29:46.779Z,94726.49
2019-04-01T10:32:15.698Z,94741.17
2019-04-01T10:34:44.181Z,94770.64
2019-04-01T10:37:12.807Z,94753.70
2019-04-01T10:39:41.654Z,94744.48
2019-04-01T10:42:10.290Z,94739.55
2019-04-01T10:44:38.790Z,94755.19
2019-04-01T10:47:07.635Z,94741.50
2019-04-01T10:49:36.388Z,94733.87
2019-04-01T10:52:04.997Z,94726.41
2019-04-01T10:54:33.930Z,94730.00
2019-04-01T10:57:02.555Z,94733.06
2019-04-01T10:59:31.153Z,94726.47
2019-04-01T11:01:59.676Z,94719.71
2019-04-01T11:04:28.321Z,94722.52
2019-04-01T11:06:57.018Z,94717.97
2019-04-01T11:09:37.688Z,94722.08
2019-04-01T11:11:55.986Z,94731.13
2019-04-01T11:14:24.936Z,94716.99
2019-04-01T11:16:53.633Z,94718.77
2019-04-01T11:19:22.248Z,94716.77
2019-04-01T11:21:50.819Z,94709.30
2019-04-01T11:24:19.499Z,94717.48
2019-04-01T11:26:48.329Z,94729.41
2019-04-01T11:29:16.892Z,94707.05
2019-04-01T11:31:45.563Z,94703.59
2019-04-01T11:34:14.841Z,94700.81
2019-04-01T11:36:43.506Z,94701.66
2019-04-01T11:39:13.406Z,94692.70
2019-04-01T11:41:42.086Z,94692.31
2019-04-01T11:44:10.644Z,94695.07
2019-04-01T11:46:39.179Z,94698.43
2019-04-01T11:49:07.786Z,94688.14
2019-04-01T11:51:39.715Z,94673.96
2019-04-01T11:54:08.262Z,94674.13
2019-04-01T11:56:37.155Z,94681.71
2019-04-01T11:59:05.783Z,94678.81
2019-04-01T12:01:36.750Z,94676.73
2019-04-01T12:04:04.799Z,94660.84
2019-04-01T12:06:33.393Z,94673.32
2019-04-01T12:09:02.046Z,94676.95
2019-04-01T12:11:30.550Z,94670.69
2019-04-01T12:13:59.180Z,94665.04
2019-04-01T12:16:28.084Z,94668.45
2019-04-01T12:18:56.638Z,94657.81
2019-04-01T12:21:25.202Z,94660.36
2019-04-01T12:23:54.033Z,94663.88
2019-04-01T12:26:22.665Z,94657.81
2019-04-01T12:28:51.226Z,94651.19
2019-04-01T12:31:21.595Z,94655.70
2019-04-01T12:33:50.745Z,94648.94
2019-04-01T12:36:19.607Z,94663.59
2019-04-01T12:38:48.255Z,94654.55
2019-04-01T12:41:16.827Z,94644.95
2019-04-01T12:43:45.465Z,94647.34
2019-04-01T12:46:14.143Z,94645.47
2019-04-01T12:48:42.786Z,94639.53
2019-04-01T12:51:11.413Z,94629.55
2019-04-01T12:53:40.087Z,94636.70
2019-04-01T12:56:08.738Z,94635.90
2019-04-01T12:58:37.303Z,94631.16
2019-04-01T13:01:05.890Z,94640.63
2019-04-01T13:03:34.521Z,94634.81
2019-04-01T13:06:03.155Z,94628.66
2019-04-01T13:08:31.693Z,94629.64
2019-04-01T13:11:00.269Z,94642.25
2019-04-01T13:13:28.904Z,94624.45
2019-04-01T13:15:57.751Z,94605.64
2019-04-01T13:18:26.308Z,94617.14
2019-04-01T13:20:54.872Z,94635.13
2019-04-01T13:23:23.508Z,94629.73
2019-04-01T13:25:52.140Z,94629.62
2019-04-01T13:28:20.966Z,94633.77
2019-04-01T13:30:50.742Z,94621.69
2019-04-01T13:33:19.220Z,94613.39
2019-04-01T13:35:47.957Z,94621.16
2019-04-01T13:38:16.584Z,94615.83
2019-04-01T13:40:45.211Z,94607.90
2019-04-01T13:43:16.813Z,94616.77
2019-04-01T13:45:44.310Z,94618.81
2019-04-01T13:48:12.933Z,94619.82
2019-04-01T13:50:42.077Z,94607.22
2019-04-01T13:53:10.660Z,94613.34
2019-04-01T13:55:39.231Z,94618.59
2019-04-01T13:58:08.167Z,94616.16
2019-04-01T14:00:36.802Z,94614.14
2019-04-01T14:03:05.534Z,94621.08
2019-04-01T14:05:34.145Z,94618.72
2019-04-01T14:08:05.712Z,94624.83
2019-04-01T14:10:32.986Z,94622.44
2019-04-01T14:13:01.671Z,94625.72
2019-04-01T14:15:30.298Z,94625.21
2019-04-01T14:17:58.880Z,94626.02
2019-04-01T14:20:27.488Z,94619.66
2019-04-01T14:22:56.133Z,94614.13
2019-04-01T14:25:24.767Z,94612.75
2019-04-01T14:27:53.297Z,94609.50
2019-04-01T14:30:21.933Z,94617.46
2019-04-01T14:32:50.575Z,94617.00
2019-04-01T14:35:19.477Z,94627.06
2019-04-01T14:37:47.978Z,94625.80
2019-04-01T14:40:16.620Z,94623.91
2019-04-01T14:42:46.996Z,94633.20
2019-04-01T14:45:15.843Z,94650.56
2019-04-01T14:47:56.635Z,94617.47
2019-04-01T14:50:15.535Z,94647.77
2019-04-01T14:52:44.096Z,94630.03
2019-04-01T14:55:12.829Z,94610.63
2019-04-01T14:57:41.516Z,94628.02
2019-04-01T15:00:13.002Z,94611.90
2019-04-01T15:02:41.734Z,94622.20
2019-04-01T15:05:10.502Z,94629.73
2019-04-01T15:07:39.227Z,94627.58
2019-04-01T15:10:08.505Z,94619.67
2019-04-01T15:12:37.129Z,94630.70
2019-04-01T15:15:07.760Z,94627.58
2019-04-01T15:17:37.026Z,94632.67
2019-04-01T15:20:09.148Z,94645.20
2019-04-01T15:22:37.715Z,94651.95
2019-04-01T15:25:07.330Z,94629.11
2019-04-01T15:27:35.985Z,94635.13
2019-04-01T15:30:06.534Z,94631.55
2019-04-01T15:32:35.159Z,94637.25
2019-04-01T15:35:04.630Z,94637.02
2019-04-01T15:37:33.195Z,94650.90
2019-04-01T15:40:01.679Z,94649.62
2019-04-01T15:42:30.605Z,94644.98
2019-04-01T15:44:59.241Z,94648.30
2019-04-01T15:47:27.809Z,94641.88
2019-04-01T15:49:56.359Z,94650.45
2019-04-01T15:52:25.006Z,94652.69
2019-04-01T15:54:53.630Z,94640.77
2019-04-01T15:57:22.170Z,94654.76
2019-04-01T15:59:50.726Z,94643.69
2019-04-01T16:02:19.443Z,94637.91
2019-04-01T16:04:48.343Z,94635.02
2019-04-01T16:07:16.834Z,94640.61
2019-04-01T16:09:45.465Z,94649.34
2019-04-01T16:12:16.015Z,94655.44
2019-04-01T16:14:44.726Z,94650.65
2019-04-01T16:17:13.356Z,94648.29
2019-04-01T16:19:42.026Z,94656.11
2019-04-01T16:22:10.519Z,94659.92
2019-04-01T16:24:39.032Z,94649.97
2019-04-01T16:27:07.942Z,94665.72
2019-04-01T16:29:36.578Z,94662.94
2019-04-01T16:32:05.144Z,94653.28
2019-04-01T16:34:34.722Z,94665.13
2019-04-01T16:37:03.551Z,94657.97
2019-04-01T16:39:32.193Z,94658.34
2019-04-01T16:42:01.071Z,94656.76
2019-04-01T16:44:29.702Z,94661.30
2019-04-01T16:47:00.770Z,94676.66
2019-04-01T16:49:29.305Z,94663.97
2019-04-01T16:51:57.931Z,94671.14
2019-04-01T16:54:28.037Z,94667.13
2019-04-01T16:56:56.602Z,94669.39
2019-04-01T16:59:25.249Z,94670.41
2019-04-01T17:01:53.953Z,94670.27
2019-04-01T17:04:22.630Z,94674.08
2019-04-01T17:06:51.124Z,94670.54
2019-04-01T17:09:19.633Z,94685.77
2019-04-01T17:11:48.583Z,94681.87
2019-04-01T17:14:17.217Z,94682.58
2019-04-01T17:16:46.392Z,94681.09
2019-04-01T17:19:14.924Z,94687.99
2019-04-01T17:21:43.559Z,94690.50
2019-04-01T17:24:12.195Z,94695.79
2019-04-01T17:26:50.335Z,94701.92
2019-04-01T17:29:19.755Z,94697.67
2019-04-01T17:31:48.387Z,94704.83
2019-04-01T17:34:16.985Z,94705.47
2019-04-01T17:36:45.619Z,94708.22
2019-04-01T17:39:14.334Z,94711.60
2019-04-01T17:41:46.315Z,94717.76
2019-04-01T17:44:14.543Z,94717.25
2019-04-01T17:46:43.147Z,94726.90
2019-04-01T17:49:11.836Z,94734.19
2019-04-01T17:51:40.468Z,94735.09
2019-04-01T17:54:08.972Z,94736.68
2019-04-01T17:56:37.806Z,94734.64
2019-04-01T17:59:06.443Z,94744.08
2019-04-01T18:01:35.078Z,94753.75
2019-04-01T18:04:03.687Z,94756.61
2019-04-01T18:06:32.328Z,94754.30
2019-04-01T18:09:01.028Z,94758.58
2019-04-01T18:11:29.652Z,94766.09
2019-04-01T18:13:58.219Z,94769.09
2019-04-01T18:16:26.853Z,94771.15
2019-04-01T18:18:55.521Z,94774.33
2019-04-01T18:21:24.042Z,94780.37
2019-04-01T18:23:52.609Z,94776.25
2019-04-01T18:26:21.322Z,94776.86
2019-04-01T18:28:49.963Z,94784.86
2019-04-01T18:31:18.452Z,94788.95
2019-04-01T18:33:56.081Z,94792.66
2019-04-01T18:36:17.453Z,94791.69
2019-04-01T18:38:46.470Z,94790.54
2019-04-01T18:41:15.290Z,94789.31
2019-04-01T18:43:43.872Z,94800.58
2019-04-01T18:46:12.500Z,94802.34
2019-04-01T18:48:41.154Z,94807.50
2019-04-01T18:51:09.792Z,94809.89
2019-04-01T18:53:38.424Z,94804.80
2019-04-01T18:56:06.961Z,94812.47
2019-04-01T18:58:35.470Z,94814.80
2019-04-01T19:01:04.589Z,94811.57
2019-04-01T19:03:33.476Z,94812.70
2019-04-01T19:06:02.038Z,94808.31
2019-04-01T19:08:30.541Z,94817.20
2019-04-01T19:11:02.497Z,94819.67
2019-04-01T19:13:29.585Z,94822.16
2019-04-01T19:15:59.256Z,94824.23
2019-04-01T19:18:28.350Z,94825.03
2019-04-01T19:21:01.687Z,94827.25
2019-04-01T19:23:27.329Z,94826.34
2019-04-01T19:25:55.873Z,94831.38
2019-04-01T19:28:24.503Z,94831.02
2019-04-01T19:30:52.991Z,94831.31
2019-04-01T19:33:21.530Z,94838.06
2019-04-01T19:35:50.172Z,94839.80
2019-04-01T19:38:21.311Z,94835.73
2019-04-01T19:40:49.164Z,94842.41
2019-04-01T19:43:17.666Z,94845.17
2019-04-01T19:45:46.370Z,94849.56
2019-04-01T19:48:15.235Z,94859.17
2019-04-01T19:50:43.734Z,94854.34
2019-04-01T19:53:12.225Z,94858.22
2019-04-01T19:55:43.720Z,94865.78
2019-04-01T19:58:11.423Z,94859.24
2019-04-01T20:00:39.923Z,94854.16
2019-04-01T20:03:08.605Z,94858.01
2019-04-01T20:05:37.267Z,94861.38
2019-04-01T20:08:05.842Z,94852.09
2019-04-01T20:10:34.504Z,94856.51
2019-04-01T20:13:03.139Z,94854.03
2019-04-01T20:15:31.704Z,94851.53
2019-04-01T20:18:00.384Z,94858.02
2019-04-01T20:20:29.014Z,94858.02
2019-04-01T20:22:57.645Z,94856.64
2019-04-01T20:25:26.251Z,94855.06
2019-04-01T20:27:54.750Z,94861.88
2019-04-01T20:30:23.891Z,94861.64
2019-04-01T20:32:52.586Z,94865.98
2019-04-01T20:35:23.496Z,94867.22
2019-04-01T20:37:51.465Z,94871.77
2019-04-01T20:40:20.437Z,94869.21
2019-04-01T20:42:49.070Z,94872.37
2019-04-01T20:45:17.735Z,94872.03
2019-04-01T20:47:46.414Z,94878.20
2019-04-01T20:50:16.544Z,94879.59
2019-04-01T20:52:45.218Z,94877.03
2019-04-01T20:55:14.254Z,94880.14
2019-04-01T20:57:42.750Z,94872.64
2019-04-01T21:00:11.485Z,94872.08
2019-04-01T21:02:40.192Z,94875.09
2019-04-01T21:05:09.349Z,94867.80
2019-04-01T21:07:37.859Z,94875.03
2019-04-01T21:10:07.824Z,94874.83
2019-04-01T21:12:37.246Z,94876.63
2019-04-01T21:15:07.458Z,94882.07
2019-04-01T21:17:35.998Z,94881.51
2019-04-01T21:20:06.832Z,94882.68
2019-04-01T21:22:36.628Z,94882.62
2019-04-01T21:25:07.041Z,94881.92
2019-04-01T21:27:35.656Z,94889.17
2019-04-01T21:30:07.022Z,94893.59
2019-04-01T21:32:35.704Z,94896.35
2019-04-01T21:35:05.433Z,94885.13
2019-04-01T21:37:35.026Z,94887.02
2019-04-01T21:40:05.391Z,94888.06
2019-04-01T21:42:34.128Z,94895.09
2019-04-01T21:45:03.002Z,94897.71
2019-04-01T21:47:31.641Z,94907.00
2019-04-01T21:50:00.149Z,94898.69
2019-04-01T21:52:28.659Z,94899.22
2019-04-01T21:54:57.458Z,94901.69
2019-04-01T21:57:26.212Z,94893.13
2019-04-01T21:59:54.744Z,94895.83
2019-04-01T22:02:35.205Z,94893.95
2019-04-01T22:04:53.734Z,94898.20
2019-04-01T22:07:22.328Z,94901.36
2019-04-01T22:09:50.967Z,94897.33
2019-04-01T22:12:19.584Z,94904.86
2019-04-01T22:14:48.207Z,94902.11
2019-04-01T22:17:17.097Z,94903.70
2019-04-01T22:19:45.667Z,94906.03
2019-04-01T22:22:14.333Z,94903.34
2019-04-01T22:24:42.849Z,94905.08
2019-04-01T22:27:11.414Z,94911.91
2019-04-01T22:29:40.089Z,94917.17
2019-04-01T22:32:08.721Z,94916.49
2019-04-01T22:34:38.070Z,94917.94
2019-04-01T22:37:08.113Z,94913.17
2019-04-01T22:39:36.857Z,94911.09
2019-04-01T22:42:05.512Z,94909.32
2019-04-01T22:44:34.031Z,94910.63
2019-04-01T22:47:02.666Z,94900.98
2019-04-01T22:49:32.066Z,94905.34
2019-04-01T22:52:00.679Z,94903.72
2019-04-01T22:54:30.216Z,94899.65
2019-04-01T22:56:59.631Z,94914.06
2019-04-01T22:59:28.240Z,94913.98
2019-04-01T23:01:59.372Z,94912.08
2019-04-01T23:04:27.117Z,94913.36
2019-04-01T23:06:55.916Z,94911.87
2019-04-01T23:09:24.418Z,94909.02
2019-04-01T23:11:53.496Z,94915.14
2019-04-01T23:14:22.529Z,94911.79
2019-04-01T23:16:51.166Z,94907.73
2019-04-01T23:19:19.734Z,94907.73
2019-04-01T23:21:48.327Z,94913.05
2019-04-01T23:24:16.953Z,94917.66
2019-04-01T23:26:45.590Z,94914.12
2019-04-01T23:29:14.129Z,94910.17
2019-04-01T23:31:42.698Z,94910.19
2019-04-01T23:34:11.341Z,94911.11
2019-04-01T23:36:40.195Z,94907.29
2019-04-01T23:39:09.597Z,94905.34
2019-04-01T23:41:38.089Z,94907.02
2019-04-01T23:44:06.753Z,94903.54
2019-04-01T23:46:35.398Z,94894.67
2019-04-01T23:49:04.061Z,94893.95
2019-04-01T23:51:33.540Z,94898.50
2019-04-01T23:54:02.276Z,94893.02
2019-04-01T23:56:31.275Z,94907.78
2019-04-01T23:58:59.918Z,94905.35
